createdAt,value
2022-09-03T00:00:37.743Z,14.71
2022-09-03T00:01:37.805Z,14.74
2022-09-03T00:02:37.863Z,14.72
2022-09-03T00:03:37.708Z,14.71
2022-09-03T00:04:37.697Z,14.67
2022-09-03T00:05:37.685Z,14.60
2022-09-03T00:06:37.676Z,14.66
2022-09-03T00:07:37.663Z,14.66
2022-09-03T00:08:37.652Z,14.66
2022-09-03T00:09:37.641Z,14.60
2022-09-03T00:10:37.707Z,14.60
2022-09-03T00:11:37.617Z,14.61
2022-09-03T00:12:37.607Z,14.60
2022-09-03T00:13:37.597Z,14.53
2022-09-03T00:14:37.585Z,14.54
2022-09-03T00:15:37.640Z,14.52
2022-09-03T00:16:37.563Z,14.56
2022-09-03T00:17:37.550Z,14.60
2022-09-03T00:18:37.545Z,14.56
2022-09-03T00:19:37.529Z,14.60
2022-09-03T00:20:37.520Z,14.56
2022-09-03T00:21:37.505Z,14.61
2022-09-03T00:22:37.497Z,14.48
2022-09-03T00:23:37.484Z,14.53
2022-09-03T00:24:37.475Z,14.49
2022-09-03T00:25:37.459Z,14.48
2022-09-03T00:26:37.452Z,14.52
2022-09-03T00:27:37.438Z,14.48
2022-09-03T00:28:37.428Z,14.52
2022-09-03T00:29:37.417Z,14.49
2022-09-03T00:30:37.405Z,14.48
2022-09-03T00:31:37.525Z,14.48
2022-09-03T00:32:37.384Z,14.49
2022-09-03T00:33:37.368Z,14.53
2022-09-03T00:34:37.360Z,14.56
2022-09-03T00:35:37.351Z,14.53
2022-09-03T00:36:37.340Z,14.60
2022-09-03T00:37:38.297Z,14.57
2022-09-03T00:38:37.319Z,14.57
2022-09-03T00:39:37.338Z,14.59
2022-09-03T00:40:37.299Z,14.61
2022-09-03T00:41:37.281Z,14.69
2022-09-03T00:42:37.276Z,14.69
2022-09-03T00:43:37.257Z,14.69
2022-09-03T00:44:37.251Z,14.66
2022-09-03T00:45:37.234Z,14.71
2022-09-03T00:46:37.304Z,14.60
2022-09-03T00:47:37.214Z,14.57
2022-09-03T00:48:37.202Z,14.60
2022-09-03T00:49:37.190Z,14.60
2022-09-03T00:50:37.180Z,14.52
2022-09-03T00:51:37.167Z,14.53
2022-09-03T00:52:37.160Z,14.53
2022-09-03T00:53:37.146Z,14.56
2022-09-03T00:54:37.135Z,14.48
2022-09-03T00:55:37.123Z,14.48
2022-09-03T00:56:37.113Z,14.48
2022-09-03T00:57:37.098Z,14.46
2022-09-03T00:58:37.094Z,14.48
2022-09-03T00:59:37.120Z,14.44
2022-09-03T01:00:37.068Z,14.42
2022-09-03T01:01:37.125Z,14.41
2022-09-03T01:02:37.182Z,14.39
2022-09-03T01:03:37.033Z,14.38
2022-09-03T01:04:37.022Z,14.30
2022-09-03T01:05:37.006Z,14.27
2022-09-03T01:06:37.001Z,14.31
2022-09-03T01:07:36.987Z,14.31
2022-09-03T01:08:36.978Z,14.31
2022-09-03T01:09:36.967Z,14.30
2022-09-03T01:10:36.957Z,14.29
2022-09-03T01:11:36.942Z,14.27
2022-09-03T01:12:36.936Z,14.23
2022-09-03T01:13:36.919Z,14.19
2022-09-03T01:14:36.913Z,14.20
2022-09-03T01:15:36.995Z,14.20
2022-09-03T01:16:36.891Z,14.19
2022-09-03T01:17:36.876Z,14.17
2022-09-03T01:18:36.865Z,14.20
2022-09-03T01:19:36.853Z,14.17
2022-09-03T01:20:36.845Z,14.11
2022-09-03T01:21:36.836Z,14.09
2022-09-03T01:22:36.819Z,14.05
2022-09-03T01:23:36.808Z,14.05
2022-09-03T01:24:36.797Z,14.02
2022-09-03T01:25:36.788Z,14.01
2022-09-03T01:26:36.776Z,13.96
2022-09-03T01:27:36.762Z,13.90
2022-09-03T01:28:36.753Z,13.87
2022-09-03T01:29:39.690Z,13.80
2022-09-03T01:30:36.731Z,13.83
2022-09-03T01:31:36.718Z,13.81
2022-09-03T01:32:36.707Z,13.75
2022-09-03T01:33:36.694Z,13.80
2022-09-03T01:34:36.688Z,13.79
2022-09-03T01:35:36.673Z,13.79
2022-09-03T01:36:36.665Z,13.84
2022-09-03T01:37:36.648Z,13.80
2022-09-03T01:38:36.638Z,13.81
2022-09-03T01:39:36.668Z,13.75
2022-09-03T01:40:36.618Z,13.71
2022-09-03T01:41:36.603Z,13.68
2022-09-03T01:42:36.595Z,13.66
2022-09-03T01:43:36.878Z,13.68
2022-09-03T01:44:36.570Z,13.65
2022-09-03T01:45:36.560Z,13.59
2022-09-03T01:46:36.619Z,13.63
2022-09-03T01:47:36.537Z,13.63
2022-09-03T01:48:36.524Z,13.59
2022-09-03T01:49:36.513Z,13.61
2022-09-03T01:50:36.502Z,13.59
2022-09-03T01:51:36.493Z,13.62
2022-09-03T01:52:36.478Z,13.53
2022-09-03T01:53:36.467Z,13.53
2022-09-03T01:54:36.458Z,13.50
2022-09-03T01:55:36.445Z,13.51
2022-09-03T01:56:36.436Z,13.50
2022-09-03T01:57:37.110Z,13.50
2022-09-03T01:58:36.411Z,13.46
2022-09-03T01:59:36.400Z,13.38
2022-09-03T02:00:36.390Z,13.41
2022-09-03T02:01:36.413Z,13.35
2022-09-03T02:02:36.399Z,13.31
2022-09-03T02:03:36.353Z,13.31
2022-09-03T02:04:36.344Z,13.28
2022-09-03T02:05:36.331Z,13.32
2022-09-03T02:06:36.321Z,13.28
2022-09-03T02:07:36.310Z,13.27
2022-09-03T02:08:36.336Z,13.27
2022-09-03T02:09:36.286Z,13.28
2022-09-03T02:10:36.275Z,13.24
2022-09-03T02:11:36.263Z,13.21
2022-09-03T02:12:36.255Z,13.21
2022-09-03T02:13:36.239Z,13.17
2022-09-03T02:14:36.230Z,13.21
2022-09-03T02:15:36.287Z,13.22
2022-09-03T02:16:36.207Z,13.19
2022-09-03T02:17:36.399Z,13.14
2022-09-03T02:18:36.184Z,13.16
2022-09-03T02:19:36.172Z,13.06
2022-09-03T02:20:36.164Z,12.98
2022-09-03T02:21:36.148Z,12.99
2022-09-03T02:22:36.142Z,12.96
2022-09-03T02:23:36.127Z,12.95
2022-09-03T02:24:36.115Z,12.94
2022-09-03T02:25:36.106Z,12.92
2022-09-03T02:26:36.094Z,12.91
2022-09-03T02:27:36.082Z,12.89
2022-09-03T02:28:36.123Z,12.87
2022-09-03T02:29:36.057Z,12.91
2022-09-03T02:30:36.105Z,12.91
2022-09-03T02:31:36.035Z,12.87
2022-09-03T02:32:36.032Z,12.89
2022-09-03T02:33:36.012Z,12.91
2022-09-03T02:34:36.003Z,12.91
2022-09-03T02:35:35.989Z,12.87
2022-09-03T02:36:35.980Z,12.87
2022-09-03T02:37:35.966Z,12.89
2022-09-03T02:38:35.975Z,12.87
2022-09-03T02:39:39.307Z,12.87
2022-09-03T02:40:35.936Z,12.84
2022-09-03T02:41:35.921Z,12.87
2022-09-03T02:42:35.909Z,12.81
2022-09-03T02:43:35.895Z,12.80
2022-09-03T02:44:35.888Z,12.88
2022-09-03T02:45:35.878Z,12.87
2022-09-03T02:46:35.867Z,12.87
2022-09-03T02:47:35.855Z,12.81
2022-09-03T02:48:35.842Z,12.80
2022-09-03T02:49:35.828Z,12.80
2022-09-03T02:50:35.818Z,12.79
2022-09-03T02:51:35.806Z,12.81
2022-09-03T02:52:35.798Z,12.85
2022-09-03T02:53:35.783Z,12.88
2022-09-03T02:54:35.773Z,12.87
2022-09-03T02:55:35.762Z,12.80
2022-09-03T02:56:35.752Z,12.84
2022-09-03T02:57:35.736Z,12.79
2022-09-03T02:58:35.728Z,12.79
2022-09-03T02:59:35.715Z,12.81
2022-09-03T03:00:35.706Z,12.76
2022-09-03T03:01:35.752Z,12.73
2022-09-03T03:02:35.727Z,12.73
2022-09-03T03:03:35.671Z,12.66
2022-09-03T03:04:35.661Z,12.66
2022-09-03T03:05:35.650Z,12.56
2022-09-03T03:06:35.638Z,12.46
2022-09-03T03:07:35.627Z,12.46
2022-09-03T03:08:35.620Z,12.48
2022-09-03T03:09:35.604Z,12.46
2022-09-03T03:10:35.595Z,12.46
2022-09-03T03:11:35.583Z,12.43
2022-09-03T03:12:35.573Z,12.49
2022-09-03T03:13:35.560Z,12.48
2022-09-03T03:14:35.551Z,12.54
2022-09-03T03:15:35.537Z,12.51
2022-09-03T03:16:35.599Z,12.51
2022-09-03T03:17:35.515Z,12.52
2022-09-03T03:18:35.503Z,12.51
2022-09-03T03:19:35.490Z,12.44
2022-09-03T03:20:35.482Z,12.49
2022-09-03T03:21:35.468Z,12.46
2022-09-03T03:22:35.459Z,12.38
2022-09-03T03:23:35.447Z,12.43
2022-09-03T03:24:35.436Z,12.36
2022-09-03T03:25:35.425Z,12.33
2022-09-03T03:26:35.418Z,12.34
2022-09-03T03:27:35.403Z,12.33
2022-09-03T03:28:35.392Z,12.33
2022-09-03T03:29:35.380Z,12.33
2022-09-03T03:30:35.443Z,12.30
2022-09-03T03:31:35.360Z,12.31
2022-09-03T03:32:35.349Z,12.26
2022-09-03T03:33:35.346Z,12.33
2022-09-03T03:34:35.326Z,12.41
2022-09-03T03:35:35.313Z,12.41
2022-09-03T03:36:35.305Z,12.43
2022-09-03T03:37:35.291Z,12.43
2022-09-03T03:38:35.281Z,12.40
2022-09-03T03:39:35.355Z,12.40
2022-09-03T03:40:35.260Z,12.36
2022-09-03T03:41:35.246Z,12.33
2022-09-03T03:42:35.237Z,12.23
2022-09-03T03:43:35.224Z,12.16
2022-09-03T03:44:35.217Z,12.11
2022-09-03T03:45:35.272Z,12.05
2022-09-03T03:46:35.191Z,12.07
2022-09-03T03:47:35.179Z,12.01
2022-09-03T03:48:35.171Z,12.00
2022-09-03T03:49:35.156Z,12.01
2022-09-03T03:50:35.151Z,11.96
2022-09-03T03:51:35.135Z,11.93
2022-09-03T03:52:35.125Z,11.88
2022-09-03T03:53:35.115Z,11.93
2022-09-03T03:54:35.102Z,11.85
2022-09-03T03:55:35.405Z,11.82
2022-09-03T03:56:35.079Z,11.75
2022-09-03T03:57:35.077Z,11.74
2022-09-03T03:58:35.059Z,11.79
2022-09-03T03:59:35.047Z,11.81
2022-09-03T04:00:35.038Z,11.75
2022-09-03T04:01:35.149Z,11.78
2022-09-03T04:02:38.911Z,11.70
2022-09-03T04:03:35.006Z,11.64
2022-09-03T04:04:34.991Z,11.63
2022-09-03T04:05:34.981Z,11.63
2022-09-03T04:06:34.969Z,11.59
2022-09-03T04:07:34.957Z,11.59
2022-09-03T04:08:34.951Z,11.56
2022-09-03T04:09:34.988Z,11.54
2022-09-03T04:10:34.925Z,11.54
2022-09-03T04:11:34.911Z,11.53
2022-09-03T04:12:34.904Z,11.57
2022-09-03T04:13:34.890Z,11.56
2022-09-03T04:14:34.881Z,11.59
2022-09-03T04:15:34.869Z,11.57
2022-09-03T04:16:34.905Z,11.60
2022-09-03T04:17:34.844Z,11.60
2022-09-03T04:18:34.857Z,11.62
2022-09-03T04:19:34.832Z,11.57
2022-09-03T04:20:34.812Z,11.62
2022-09-03T04:21:34.840Z,11.69
2022-09-03T04:22:34.843Z,11.67
2022-09-03T04:23:34.907Z,11.63
2022-09-03T04:24:34.876Z,11.66
2022-09-03T04:25:34.921Z,11.72
2022-09-03T04:26:34.858Z,11.69
2022-09-03T04:27:34.757Z,11.72
2022-09-03T04:28:34.722Z,11.77
2022-09-03T04:29:34.712Z,11.72
2022-09-03T04:30:34.747Z,11.69
2022-09-03T04:31:34.689Z,11.66
2022-09-03T04:32:34.678Z,11.60
2022-09-03T04:33:34.669Z,11.56
2022-09-03T04:34:34.655Z,11.46
2022-09-03T04:35:35.886Z,11.51
2022-09-03T04:36:34.632Z,11.57
2022-09-03T04:37:34.626Z,11.56
2022-09-03T04:38:34.609Z,11.64
2022-09-03T04:39:34.640Z,11.66
2022-09-03T04:40:34.588Z,11.67
2022-09-03T04:41:34.580Z,11.67
2022-09-03T04:42:34.566Z,11.70
2022-09-03T04:43:34.557Z,11.67
2022-09-03T04:44:34.545Z,11.67
2022-09-03T04:45:34.600Z,11.62
2022-09-03T04:46:34.523Z,11.60
2022-09-03T04:47:34.514Z,11.64
2022-09-03T04:48:34.500Z,11.64
2022-09-03T04:49:34.490Z,11.63
2022-09-03T04:50:34.480Z,11.67
2022-09-03T04:51:34.469Z,11.69
2022-09-03T04:52:34.454Z,11.70
2022-09-03T04:53:34.446Z,11.72
2022-09-03T04:54:34.432Z,11.72
2022-09-03T04:55:34.425Z,11.77
2022-09-03T04:56:34.414Z,11.74
2022-09-03T04:57:34.409Z,11.67
2022-09-03T04:58:34.389Z,11.70
2022-09-03T04:59:34.387Z,11.74
2022-09-03T05:00:34.369Z,11.79
2022-09-03T05:01:34.509Z,11.79
2022-09-03T05:02:34.390Z,11.82
2022-09-03T05:03:34.334Z,11.82
2022-09-03T05:04:34.320Z,11.88
2022-09-03T05:05:34.310Z,11.85
2022-09-03T05:06:34.296Z,11.87
2022-09-03T05:07:34.291Z,11.85
2022-09-03T05:08:34.279Z,11.81
2022-09-03T05:09:34.266Z,11.79
2022-09-03T05:10:34.253Z,11.79
2022-09-03T05:11:34.248Z,11.81
2022-09-03T05:12:34.232Z,11.81
2022-09-03T05:13:34.222Z,11.87
2022-09-03T05:14:34.208Z,11.96
2022-09-03T05:15:34.203Z,11.97
2022-09-03T05:16:34.318Z,11.97
2022-09-03T05:17:37.677Z,11.93
2022-09-03T05:18:34.164Z,11.93
2022-09-03T05:19:34.153Z,11.94
2022-09-03T05:20:34.144Z,11.94
2022-09-03T05:21:34.135Z,11.94
2022-09-03T05:22:34.119Z,11.93
2022-09-03T05:23:37.548Z,12.01
2022-09-03T05:24:34.100Z,12.00
2022-09-03T05:25:34.087Z,12.00
2022-09-03T05:26:34.074Z,12.07
2022-09-03T05:27:34.065Z,12.13
2022-09-03T05:28:34.051Z,12.23
2022-09-03T05:29:34.051Z,12.30
2022-09-03T05:30:34.029Z,12.30
2022-09-03T05:31:34.090Z,12.37
2022-09-03T05:32:34.007Z,12.44
2022-09-03T05:33:33.997Z,12.49
2022-09-03T05:34:33.986Z,12.58
2022-09-03T05:35:34.078Z,12.63
2022-09-03T05:36:33.980Z,12.70
2022-09-03T05:37:33.983Z,12.73
2022-09-03T05:38:33.944Z,12.80
2022-09-03T05:39:34.007Z,12.81
2022-09-03T05:40:33.918Z,12.87
2022-09-03T05:41:33.915Z,12.92
2022-09-03T05:42:33.905Z,12.98
2022-09-03T05:43:33.986Z,13.06
2022-09-03T05:44:33.880Z,13.13
2022-09-03T05:45:33.919Z,13.17
2022-09-03T05:46:33.882Z,13.31
2022-09-03T05:47:33.843Z,13.35
2022-09-03T05:48:33.827Z,13.39
2022-09-03T05:49:33.821Z,13.47
2022-09-03T05:50:33.818Z,13.48
2022-09-03T05:51:33.816Z,13.51
2022-09-03T05:52:33.781Z,13.54
2022-09-03T05:53:33.773Z,13.59
2022-09-03T05:54:33.762Z,13.66
2022-09-03T05:55:33.750Z,13.71
2022-09-03T05:56:33.764Z,13.76
2022-09-03T05:57:33.733Z,13.86
2022-09-03T05:58:33.720Z,13.90
2022-09-03T05:59:33.705Z,13.91
2022-09-03T06:00:33.693Z,13.91
2022-09-03T06:01:33.681Z,14.01
2022-09-03T06:02:33.719Z,13.99
2022-09-03T06:03:33.805Z,14.04
2022-09-03T06:04:33.660Z,14.05
2022-09-03T06:05:33.637Z,14.12
2022-09-03T06:06:33.624Z,14.11
2022-09-03T06:07:33.613Z,14.16
2022-09-03T06:08:33.602Z,14.21
2022-09-03T06:09:33.593Z,14.23
2022-09-03T06:10:40.703Z,14.20
2022-09-03T06:11:33.573Z,14.31
2022-09-03T06:12:33.556Z,14.31
2022-09-03T06:13:33.549Z,14.34
2022-09-03T06:14:33.533Z,14.36
2022-09-03T06:15:33.524Z,14.35
2022-09-03T06:16:33.566Z,14.39
2022-09-03T06:17:33.522Z,14.42
2022-09-03T06:18:33.494Z,14.41
2022-09-03T06:19:33.480Z,14.52
2022-09-03T06:20:36.947Z,14.54
2022-09-03T06:21:33.455Z,14.52
2022-09-03T06:22:33.445Z,14.57
2022-09-03T06:23:33.435Z,14.56
2022-09-03T06:24:33.425Z,14.61
2022-09-03T06:25:33.416Z,14.63
2022-09-03T06:26:33.401Z,14.69
2022-09-03T06:27:33.392Z,14.69
2022-09-03T06:28:33.380Z,14.74
2022-09-03T06:29:33.383Z,14.74
2022-09-03T06:30:33.360Z,14.78
2022-09-03T06:31:33.423Z,14.83
2022-09-03T06:32:33.341Z,14.86
2022-09-03T06:33:33.326Z,14.90
2022-09-03T06:34:33.312Z,15.00
2022-09-03T06:35:35.638Z,14.95
2022-09-03T06:36:34.333Z,14.95
2022-09-03T06:37:33.281Z,15.11
2022-09-03T06:38:33.269Z,15.19
2022-09-03T06:39:33.348Z,15.19
2022-09-03T06:40:33.255Z,15.27
2022-09-03T06:41:33.259Z,15.43
2022-09-03T06:42:33.221Z,15.49
2022-09-03T06:43:33.213Z,15.46
2022-09-03T06:44:33.198Z,15.59
2022-09-03T06:45:33.284Z,15.55
2022-09-03T06:46:33.216Z,15.73
2022-09-03T06:47:33.165Z,15.81
2022-09-03T06:48:33.150Z,15.91
2022-09-03T06:49:33.143Z,16.04
2022-09-03T06:50:34.754Z,16.08
2022-09-03T06:51:33.167Z,16.13
2022-09-03T06:52:33.109Z,15.95
2022-09-03T06:53:33.097Z,15.80
2022-09-03T06:54:33.085Z,15.73
2022-09-03T06:55:33.079Z,15.67
2022-09-03T06:56:37.410Z,15.64
2022-09-03T06:57:34.092Z,15.68
2022-09-03T06:58:33.039Z,15.99
2022-09-03T06:59:33.032Z,16.29
2022-09-03T07:00:33.088Z,16.67
2022-09-03T07:01:33.217Z,16.84
2022-09-03T07:02:33.012Z,17.35
2022-09-03T07:03:32.986Z,17.58
2022-09-03T07:04:32.974Z,17.96
2022-09-03T07:05:32.971Z,18.23
2022-09-03T07:06:32.953Z,18.46
2022-09-03T07:07:32.944Z,18.35
2022-09-03T07:08:32.927Z,18.13
2022-09-03T07:09:32.920Z,18.31
2022-09-03T07:10:32.906Z,18.54
2022-09-03T07:11:33.056Z,18.79
2022-09-03T07:12:32.891Z,18.79
2022-09-03T07:13:32.874Z,18.78
2022-09-03T07:14:32.864Z,18.53
2022-09-03T07:15:32.855Z,18.21
2022-09-03T07:16:32.924Z,17.95
2022-09-03T07:17:32.832Z,17.62
2022-09-03T07:18:32.819Z,17.62
2022-09-03T07:19:33.058Z,17.95
2022-09-03T07:20:32.870Z,18.64
2022-09-03T07:21:32.786Z,19.32
2022-09-03T07:22:32.796Z,19.49
2022-09-03T07:23:32.763Z,19.68
2022-09-03T07:24:32.757Z,20.00
2022-09-03T07:25:32.742Z,20.23
2022-09-03T07:26:32.731Z,20.19
2022-09-03T07:27:32.723Z,20.53
2022-09-03T07:28:32.705Z,20.88
2022-09-03T07:29:32.699Z,20.91
2022-09-03T07:30:32.685Z,20.94
2022-09-03T07:31:32.780Z,20.96
2022-09-03T07:32:32.664Z,21.00
2022-09-03T07:33:33.904Z,21.05
2022-09-03T07:34:32.643Z,20.98
2022-09-03T07:35:32.638Z,21.01
2022-09-03T07:36:35.325Z,21.19
2022-09-03T07:37:32.615Z,21.24
2022-09-03T07:38:32.601Z,20.88
2022-09-03T07:39:32.700Z,20.85
2022-09-03T07:40:32.596Z,20.96
2022-09-03T07:41:32.769Z,21.13
2022-09-03T07:42:32.844Z,21.18
2022-09-03T07:43:32.542Z,21.45
2022-09-03T07:44:32.530Z,21.63
2022-09-03T07:45:32.626Z,21.68
2022-09-03T07:46:32.561Z,21.94
2022-09-03T07:47:32.500Z,22.05
2022-09-03T07:48:37.159Z,22.17
2022-09-03T07:49:32.491Z,21.86
2022-09-03T07:50:32.504Z,21.58
2022-09-03T07:51:32.473Z,21.59
2022-09-03T07:52:32.540Z,21.56
2022-09-03T07:53:32.700Z,21.86
2022-09-03T07:54:32.473Z,22.11
2022-09-03T07:55:32.425Z,22.23
2022-09-03T07:56:32.408Z,22.49
2022-09-03T07:57:32.393Z,22.74
2022-09-03T07:58:32.380Z,22.82
2022-09-03T07:59:32.369Z,22.75
2022-09-03T08:00:32.447Z,22.93
2022-09-03T08:01:32.347Z,22.88
2022-09-03T08:02:32.333Z,22.42
2022-09-03T08:03:32.612Z,22.30
2022-09-03T08:04:32.627Z,21.99
2022-09-03T08:05:32.305Z,22.04
2022-09-03T08:06:32.292Z,22.46
2022-09-03T08:07:32.293Z,22.81
2022-09-03T08:08:35.584Z,22.94
2022-09-03T08:09:32.261Z,22.81
2022-09-03T08:10:32.259Z,22.91
2022-09-03T08:11:32.310Z,23.04
2022-09-03T08:12:32.233Z,23.35
2022-09-03T08:13:32.224Z,23.79
2022-09-03T08:14:32.223Z,23.56
2022-09-03T08:15:32.218Z,23.56
2022-09-03T08:16:32.301Z,23.54
2022-09-03T08:17:32.235Z,23.81
2022-09-03T08:18:32.435Z,23.96
2022-09-03T08:19:32.154Z,24.30
2022-09-03T08:20:32.421Z,24.41
2022-09-03T08:21:32.131Z,24.53
2022-09-03T08:22:32.120Z,23.94
2022-09-03T08:23:32.107Z,24.14
2022-09-03T08:24:32.116Z,24.08
2022-09-03T08:25:32.119Z,24.31
2022-09-03T08:26:32.100Z,24.23
2022-09-03T08:27:32.067Z,24.41
2022-09-03T08:28:32.057Z,24.19
2022-09-03T08:29:32.047Z,24.08
2022-09-03T08:30:32.032Z,24.29
2022-09-03T08:31:32.163Z,24.33
2022-09-03T08:32:32.011Z,24.44
2022-09-03T08:33:32.002Z,24.53
2022-09-03T08:34:31.989Z,24.79
2022-09-03T08:35:31.975Z,25.12
2022-09-03T08:36:31.967Z,25.45
2022-09-03T08:37:31.952Z,25.85
2022-09-03T08:38:31.947Z,25.89
2022-09-03T08:39:32.115Z,25.97
2022-09-03T08:40:31.925Z,26.06
2022-09-03T08:41:31.911Z,26.03
2022-09-03T08:42:32.051Z,26.16
2022-09-03T08:43:31.889Z,25.98
2022-09-03T08:44:31.888Z,25.39
2022-09-03T08:45:31.876Z,25.74
2022-09-03T08:46:31.902Z,25.96
2022-09-03T08:47:31.857Z,26.16
2022-09-03T08:48:31.840Z,25.98
2022-09-03T08:49:32.013Z,25.54
2022-09-03T08:50:31.949Z,25.44
2022-09-03T08:51:31.832Z,25.56
2022-09-03T08:52:31.796Z,25.34
2022-09-03T08:53:31.784Z,25.26
2022-09-03T08:54:31.782Z,25.41
2022-09-03T08:55:31.764Z,25.61
2022-09-03T08:56:31.803Z,25.97
2022-09-03T08:57:31.743Z,26.36
2022-09-03T08:58:31.732Z,26.68
2022-09-03T08:59:32.905Z,27.02
2022-09-03T09:00:31.740Z,27.11
2022-09-03T09:01:31.787Z,27.15
2022-09-03T09:02:31.907Z,27.01
2022-09-03T09:03:31.687Z,27.20
2022-09-03T09:04:31.676Z,27.28
2022-09-03T09:05:31.661Z,27.15
2022-09-03T09:06:31.647Z,26.98
2022-09-03T09:07:31.640Z,27.09
2022-09-03T09:08:31.633Z,26.90
2022-09-03T09:09:31.618Z,26.61
2022-09-03T09:10:31.606Z,27.02
2022-09-03T09:11:31.651Z,27.15
2022-09-03T09:12:39.793Z,26.97
2022-09-03T09:13:32.604Z,26.69
2022-09-03T09:14:31.570Z,26.90
2022-09-03T09:15:31.553Z,27.30
2022-09-03T09:16:31.553Z,26.93
2022-09-03T09:17:31.541Z,27.18
2022-09-03T09:18:31.521Z,27.28
2022-09-03T09:19:31.520Z,27.28
2022-09-03T09:20:31.505Z,27.21
2022-09-03T09:21:31.491Z,27.49
2022-09-03T09:22:31.479Z,27.98
2022-09-03T09:23:31.474Z,28.15
2022-09-03T09:24:31.485Z,28.60
2022-09-03T09:25:31.488Z,28.72
2022-09-03T09:26:31.437Z,28.82
2022-09-03T09:27:31.430Z,28.54
2022-09-03T09:28:31.616Z,28.20
2022-09-03T09:29:31.464Z,28.32
2022-09-03T09:30:31.498Z,28.33
2022-09-03T09:31:31.518Z,28.72
2022-09-03T09:32:31.416Z,29.00
2022-09-03T09:33:31.501Z,28.32
2022-09-03T09:34:31.459Z,28.28
2022-09-03T09:35:31.391Z,28.55
2022-09-03T09:36:31.392Z,28.38
2022-09-03T09:37:31.457Z,28.70
2022-09-03T09:38:31.566Z,28.51
2022-09-03T09:39:31.567Z,28.77
2022-09-03T09:40:32.094Z,28.83
2022-09-03T09:41:31.551Z,28.65
2022-09-03T09:42:31.350Z,28.80
2022-09-03T09:43:31.334Z,28.52
2022-09-03T09:45:05.589Z,28.76
2022-09-03T09:46:05.639Z,28.32
2022-09-03T09:47:05.567Z,27.98
2022-09-03T09:48:05.646Z,27.83
2022-09-03T09:49:05.558Z,27.86
2022-09-03T09:50:05.676Z,28.23
2022-09-03T09:51:05.622Z,28.08
2022-09-03T09:52:05.543Z,28.03
2022-09-03T09:53:05.533Z,28.15
2022-09-03T09:54:05.541Z,27.99
2022-09-03T09:55:05.677Z,28.17
2022-09-03T09:56:05.675Z,28.42
2022-09-03T09:57:05.680Z,28.03
2022-09-03T09:58:05.532Z,28.32
2022-09-03T09:59:05.569Z,28.15
2022-09-03T10:00:05.570Z,28.69
2022-09-03T10:01:06.126Z,29.02
2022-09-03T10:02:05.470Z,29.11
2022-09-03T10:03:05.464Z,28.64
2022-09-03T10:04:05.382Z,28.33
2022-09-03T10:05:05.419Z,28.73
2022-09-03T10:06:05.321Z,28.98
2022-09-03T10:07:05.310Z,29.18
2022-09-03T10:08:05.301Z,29.45
2022-09-03T10:09:05.295Z,29.70
2022-09-03T10:10:06.552Z,29.69
2022-09-03T10:11:05.277Z,29.47
2022-09-03T10:12:05.268Z,29.70
2022-09-03T10:13:05.251Z,29.41
2022-09-03T10:14:05.245Z,29.52
2022-09-03T10:15:05.235Z,29.74
2022-09-03T10:16:05.325Z,30.03
2022-09-03T10:17:05.209Z,30.34
2022-09-03T10:18:05.215Z,30.36
2022-09-03T10:19:05.370Z,29.62
2022-09-03T10:20:05.470Z,29.30
2022-09-03T10:21:05.179Z,29.36
2022-09-03T10:22:05.163Z,29.73
2022-09-03T10:23:05.412Z,29.82
2022-09-03T10:24:07.180Z,29.52
2022-09-03T10:25:05.137Z,29.51
2022-09-03T10:26:05.137Z,29.37
2022-09-03T10:27:05.151Z,29.55
2022-09-03T10:28:05.108Z,29.88
2022-09-03T10:29:05.094Z,29.88
2022-09-03T10:30:05.125Z,28.61
2022-09-03T10:31:05.419Z,28.21
2022-09-03T10:32:05.069Z,28.88
2022-09-03T10:33:05.051Z,29.52
2022-09-03T10:34:05.119Z,29.11
2022-09-03T10:35:05.188Z,29.35
2022-09-03T10:36:05.027Z,28.64
2022-09-03T10:37:05.014Z,28.02
2022-09-03T10:38:05.004Z,27.80
2022-09-03T10:39:04.993Z,28.67
2022-09-03T10:40:05.307Z,29.23
2022-09-03T10:41:04.978Z,29.33
2022-09-03T10:42:04.962Z,29.18
2022-09-03T10:43:04.955Z,29.00
2022-09-03T10:44:04.960Z,29.71
2022-09-03T10:45:04.938Z,29.89
2022-09-03T10:46:04.970Z,30.06
2022-09-03T10:47:04.913Z,30.25
2022-09-03T10:48:04.904Z,30.06
2022-09-03T10:49:04.891Z,30.56
2022-09-03T10:50:04.883Z,30.44
2022-09-03T10:51:04.880Z,29.85
2022-09-03T10:52:04.865Z,29.73
2022-09-03T10:53:04.867Z,29.99
2022-09-03T10:54:04.844Z,30.46
2022-09-03T10:55:04.853Z,30.66
2022-09-03T10:56:04.828Z,30.67
2022-09-03T10:57:04.823Z,30.79
2022-09-03T10:58:04.806Z,31.04
2022-09-03T10:59:05.046Z,31.19
2022-09-03T11:00:04.781Z,31.28
2022-09-03T11:01:04.832Z,31.42
2022-09-03T11:02:04.789Z,31.20
2022-09-03T11:03:04.814Z,29.39
2022-09-03T11:04:04.741Z,29.32
2022-09-03T11:05:04.735Z,28.82
2022-09-03T11:06:04.724Z,28.33
2022-09-03T11:07:04.713Z,27.33
2022-09-03T11:08:04.709Z,28.11
2022-09-03T11:09:06.764Z,28.94
2022-09-03T11:10:04.681Z,28.45
2022-09-03T11:11:04.678Z,28.39
2022-09-03T11:12:04.660Z,28.97
2022-09-03T11:13:04.653Z,29.32
2022-09-03T11:14:04.661Z,30.07
2022-09-03T11:15:04.646Z,30.54
2022-09-03T11:16:04.682Z,29.30
2022-09-03T11:17:04.610Z,28.35
2022-09-03T11:18:04.599Z,27.69
2022-09-03T11:19:04.593Z,28.13
2022-09-03T11:20:04.581Z,28.73
2022-09-03T11:21:06.687Z,29.03
2022-09-03T11:22:04.568Z,29.49
2022-09-03T11:23:04.552Z,30.00
2022-09-03T11:24:04.546Z,30.57
2022-09-03T11:25:04.553Z,30.75
2022-09-03T11:26:04.542Z,30.76
2022-09-03T11:27:04.510Z,31.23
2022-09-03T11:28:04.502Z,31.47
2022-09-03T11:29:04.485Z,31.99
2022-09-03T11:30:04.481Z,32.31
2022-09-03T11:31:04.508Z,32.17
2022-09-03T11:32:04.459Z,31.97
2022-09-03T11:33:04.452Z,31.97
2022-09-03T11:34:04.440Z,31.85
2022-09-03T11:35:04.433Z,31.60
2022-09-03T11:36:04.416Z,31.53
2022-09-03T11:37:04.682Z,31.82
2022-09-03T11:38:04.398Z,31.31
2022-09-03T11:39:04.397Z,31.42
2022-09-03T11:40:04.472Z,31.30
2022-09-03T11:41:04.372Z,30.85
2022-09-03T11:42:04.359Z,30.96
2022-09-03T11:43:04.349Z,31.28
2022-09-03T11:44:04.742Z,31.68
2022-09-03T11:45:04.351Z,31.67
2022-09-03T11:46:04.407Z,31.75
2022-09-03T11:47:04.312Z,31.07
2022-09-03T11:48:04.299Z,30.59
2022-09-03T11:49:04.336Z,30.59
2022-09-03T11:50:04.317Z,30.40
2022-09-03T11:51:04.456Z,30.73
2022-09-03T11:52:04.259Z,31.19
2022-09-03T11:53:04.253Z,31.40
2022-09-03T11:54:04.253Z,31.40
2022-09-03T11:55:04.224Z,31.79
2022-09-03T11:56:04.212Z,32.06
2022-09-03T11:57:04.206Z,32.07
2022-09-03T11:58:04.193Z,31.74
2022-09-03T11:59:04.190Z,31.50
2022-09-03T12:00:04.174Z,31.57
2022-09-03T12:01:04.169Z,31.38
2022-09-03T12:02:04.187Z,31.71
2022-09-03T12:03:04.223Z,31.68
2022-09-03T12:04:04.139Z,31.25
2022-09-03T12:05:04.213Z,31.03
2022-09-03T12:06:04.117Z,31.32
2022-09-03T12:07:04.105Z,31.45
2022-09-03T12:08:08.651Z,31.49
2022-09-03T12:09:04.124Z,31.59
2022-09-03T12:10:04.078Z,31.18
2022-09-03T12:11:04.068Z,31.64
2022-09-03T12:12:04.057Z,32.10
2022-09-03T12:13:04.050Z,32.56
2022-09-03T12:14:04.068Z,32.50
2022-09-03T12:15:04.051Z,32.62
2022-09-03T12:16:04.062Z,32.66
2022-09-03T12:17:04.013Z,32.46
2022-09-03T12:18:03.997Z,32.22
2022-09-03T12:19:03.989Z,32.17
2022-09-03T12:20:03.975Z,31.20
2022-09-03T12:21:03.971Z,30.07
2022-09-03T12:22:03.958Z,29.35
2022-09-03T12:23:03.954Z,29.57
2022-09-03T12:24:03.937Z,30.34
2022-09-03T12:25:03.934Z,30.97
2022-09-03T12:26:03.992Z,31.32
2022-09-03T12:27:03.933Z,31.84
2022-09-03T12:28:03.904Z,31.65
2022-09-03T12:29:03.894Z,31.27
2022-09-03T12:30:03.888Z,31.47
2022-09-03T12:31:03.950Z,32.13
2022-09-03T12:32:03.866Z,31.84
2022-09-03T12:33:03.855Z,31.49
2022-09-03T12:34:03.894Z,31.71
2022-09-03T12:35:03.840Z,31.64
2022-09-03T12:36:03.982Z,31.16
2022-09-03T12:37:03.819Z,31.07
2022-09-03T12:38:05.880Z,30.83
2022-09-03T12:39:12.774Z,31.01
2022-09-03T12:40:07.492Z,31.54
2022-09-03T12:42:03.881Z,31.19
2022-09-03T12:44:03.750Z,31.10
2022-09-03T12:45:03.743Z,31.92
2022-09-03T12:46:11.420Z,30.96
2022-09-03T12:48:03.778Z,30.72
2022-09-03T12:50:03.731Z,31.56
2022-09-03T12:51:48.158Z,31.22
2022-09-03T12:52:06.229Z,31.28
2022-09-03T12:53:03.661Z,31.50
2022-09-03T12:54:03.648Z,29.95
2022-09-03T12:55:03.637Z,30.00
2022-09-03T12:56:03.632Z,30.98
2022-09-03T12:57:03.624Z,31.90